Atbasar, Kazakhstan
Current Conditions -  °F | °C
As of 5:30 PM on Thursday 30 Oct 2014 (Local Time) from UACK Reporting Station
Overcast Overcast  
Wind Chill: -2°   Ceiling: 1000
Heat Index:   Visibility: 6mi
Dew Point:   Wind: 11mph
Humidity: 93%   Direction: 240°WSW
Pressure: 30.21"   Gusts: NA
Location:  51.82°N, 68.35°E
Report Text: UACK 301130Z 24005MPS 9999 OVC010CB 02/01 Q1023 R20/621042NOSIG RMK QFE743/0991
Loading
Personal Weather Stations






























Interactive Weather Map
Tropical Storm Tracking
New forecast layout! Learn more

10-Day Weather Forecast

Advertisements
Track Severe Weather on mobile